sim
Sign-in with your pilot id or email,
or register
Callsign
Passwort

Schedule Details

Flight Number: RYR4011 (3)
Departure: Gothenburg Landvetter Airport (ESGG) at 16:05
Arrival: Krakow John Paul II International Airport (EPKK) at 17:55
Route: Ryanair Passenger Schedule. Enter filed route here before submitting Pirep.

Weather Information
Getting current METAR information for ESGG 251420Z 22017KT 8000 DZ SCT005 BKN019 11/10 Q0998
Getting current METAR information for EPKK 251400Z 08009KT 6000 SCT005 OVC007 10/10 Q1013

Schedule Frequency

Route Map